sensor_id;sensor_type;location;lat;lon;timestamp;pressure;altitude;pressure_sealevel;temperature;humidity
17950;BME280;9100;48.700;9.316;2023-03-26T00:00:02;97303.09999999999;;;10.03;100
17950;BME280;9100;48.700;9.316;2023-03-26T00:01:01;97309.79999999999;;;10.04;100
17950;BME280;9100;48.700;9.316;2023-03-26T00:02:01;97276.4;;;9.78;100
17950;BME280;9100;48.700;9.316;2023-03-26T00:03:01;97303.3;;;10.01;100
17950;BME280;9100;48.700;9.316;2023-03-26T00:04:01;97303.3;;;10.01;100
17950;BME280;9100;48.700;9.316;2023-03-26T00:04:52;97302.70000000001;;;9.99;100
17950;BME280;9100;48.700;9.316;2023-03-26T00:05:01;97306;;;10;100
17950;BME280;9100;48.700;9.316;2023-03-26T00:06:01;97307;;;9.99;100
17950;BME280;9100;48.700;9.316;2023-03-26T00:07:02;97306.4;;;9.97;100
17950;BME280;9100;48.700;9.316;2023-03-26T00:08:01;97175.40000000001;;;9.11;100
17950;BME280;9100;48.700;9.316;2023-03-26T00:09:01;97306.9;;;9.92;100
17950;BME280;9100;48.700;9.316;2023-03-26T00:09:52;97307.3;;;9.89;100
17950;BME280;9100;48.700;9.316;2023-03-26T00:10:02;97300.59999999999;;;9.88;100
17950;BME280;9100;48.700;9.316;2023-03-26T00:11:07;97302.4;;;9.88;100
17950;BME280;9100;48.700;9.316;2023-03-26T00:12:01;97306.1;;;9.85;100
17950;BME280;9100;48.700;9.316;2023-03-26T00:13:01;97306.5;;;9.82;100
17950;BME280;9100;48.700;9.316;2023-03-26T00:14:01;97302.09999999999;;;9.83;100
17950;BME280;9100;48.700;9.316;2023-03-26T00:14:52;97304.1;;;9.81;100
17950;BME280;9100;48.700;9.316;2023-03-26T00:15:03;97299.8;;;9.81;100
17950;BME280;9100;48.700;9.316;2023-03-26T00:16:01;97300.59999999999;;;9.82;100
17950;BME280;9100;48.700;9.316;2023-03-26T00:17:01;97293.9;;;9.81;100
17950;BME280;9100;48.700;9.316;2023-03-26T00:18:02;97293.9;;;9.81;100
17950;BME280;9100;48.700;9.316;2023-03-26T00:19:01;97295.8;;;9.79;100
17950;BME280;9100;48.700;9.316;2023-03-26T00:19:52;97296;;;9.77;100
17950;BME280;9100;48.700;9.316;2023-03-26T00:20:01;97296.8;;;9.78;100
17950;BME280;9100;48.700;9.316;2023-03-26T00:21:02;97294.4;;;9.76;100
17950;BME280;9100;48.700;9.316;2023-03-26T00:22:01;97302.09999999999;;;9.76;100
17950;BME280;9100;48.700;9.316;2023-03-26T00:23:02;97287.09999999999;;;9.73;100
17950;BME280;9100;48.700;9.316;2023-03-26T00:24:02;97294.2;;;9.71;100
17950;BME280;9100;48.700;9.316;2023-03-26T00:24:52;97292.6;;;9.7;100
17950;BME280;9100;48.700;9.316;2023-03-26T00:25:01;97293.6;;;9.69;100
17950;BME280;9100;48.700;9.316;2023-03-26T00:26:01;97296.90000000001;;;9.69;100
17950;BME280;9100;48.700;9.316;2023-03-26T00:27:02;97294.2;;;9.71;100
17950;BME280;9100;48.700;9.316;2023-03-26T00:28:02;97296.5;;;9.72;100
17950;BME280;9100;48.700;9.316;2023-03-26T00:29:01;97302.59999999999;;;9.71;100
17950;BME280;9100;48.700;9.316;2023-03-26T00:29:52;97299.3;;;9.71;100
17950;BME280;9100;48.700;9.316;2023-03-26T00:30:02;97306.9;;;9.71;100
17950;BME280;9100;48.700;9.316;2023-03-26T00:31:02;97300;;;9.71;100
17950;BME280;9100;48.700;9.316;2023-03-26T00:32:01;97300;;;9.71;100
17950;BME280;9100;48.700;9.316;2023-03-26T00:33:01;97302.59999999999;;;9.71;100
17950;BME280;9100;48.700;9.316;2023-03-26T00:34:01;97302;;;9.69;100
17950;BME280;9100;48.700;9.316;2023-03-26T00:34:52;97299.59999999999;;;9.68;100
17950;BME280;9100;48.700;9.316;2023-03-26T00:35:01;97303.8;;;9.69;100
17950;BME280;9100;48.700;9.316;2023-03-26T00:36:02;97305.5;;;9.68;100
17950;BME280;9100;48.700;9.316;2023-03-26T00:37:01;97305.5;;;9.68;100
17950;BME280;9100;48.700;9.316;2023-03-26T00:38:01;97310.6;;;9.68;100
17950;BME280;9100;48.700;9.316;2023-03-26T00:39:02;97309.1;;;9.67;100
17950;BME280;9100;48.700;9.316;2023-03-26T00:39:52;97307.5;;;9.66;100
17950;BME280;9100;48.700;9.316;2023-03-26T00:40:01;97290.5;;;9.59;100
17950;BME280;9100;48.700;9.316;2023-03-26T00:41:01;97305.5;;;9.68;100
17950;BME280;9100;48.700;9.316;2023-03-26T00:42:01;97311.40000000001;;;9.69;100
17950;BME280;9100;48.700;9.316;2023-03-26T00:43:02;97310.6;;;9.68;100
17950;BME280;9100;48.700;9.316;2023-03-26T00:44:01;97310.6;;;9.68;100
17950;BME280;9100;48.700;9.316;2023-03-26T00:44:53;97306.7;;;9.66;100
17950;BME280;9100;48.700;9.316;2023-03-26T00:45:02;97304;;;9.67;100
17950;BME280;9100;48.700;9.316;2023-03-26T00:46:02;97298.90000000001;;;9.67;100
17950;BME280;9100;48.700;9.316;2023-03-26T00:47:02;97302.4;;;9.66;100
17950;BME280;9100;48.700;9.316;2023-03-26T00:48:01;97295.7;;;9.65;100
17950;BME280;9100;48.700;9.316;2023-03-26T00:49:01;97301.2;;;9.62;100
17950;BME280;9100;48.700;9.316;2023-03-26T00:49:53;97295.3;;;9.62;100
17950;BME280;9100;48.700;9.316;2023-03-26T00:50:02;97297;;;9.61;100
17950;BME280;9100;48.700;9.316;2023-03-26T00:51:01;97295.3;;;9.62;100
17950;BME280;9100;48.700;9.316;2023-03-26T00:52:01;97296;;;9.62;100
17950;BME280;9100;48.700;9.316;2023-03-26T00:53:01;97290;;;9.63;100
17950;BME280;9100;48.700;9.316;2023-03-26T00:54:02;97290.9;;;9.62;100
17950;BME280;9100;48.700;9.316;2023-03-26T00:54:52;97288.4;;;9.62;100
17950;BME280;9100;48.700;9.316;2023-03-26T00:55:01;97291.7;;;9.63;100
17950;BME280;9100;48.700;9.316;2023-03-26T00:56:08;97285.79999999999;;;9.62;100
17950;BME280;9100;48.700;9.316;2023-03-26T00:57:02;97288.4;;;9.62;100
17950;BME280;9100;48.700;9.316;2023-03-26T00:58:01;97285;;;9.62;100
17950;BME280;9100;48.700;9.316;2023-03-26T00:59:01;97279.1;;;9.61;100
17950;BME280;9100;48.700;9.316;2023-03-26T00:59:52;97285;;;9.62;100
17950;BME280;9100;48.700;9.316;2023-03-26T01:00:03;97253.9;;;9.45;100
17950;BME280;9100;48.700;9.316;2023-03-26T01:01:03;97279.1;;;9.61;100
17950;BME280;9100;48.700;9.316;2023-03-26T01:02:01;97282.7;;;9.6;100
17950;BME280;9100;48.700;9.316;2023-03-26T01:03:02;97274.8;;;9.62;100
17950;BME280;9100;48.700;9.316;2023-03-26T01:04:33;97263.2;;;9.59;100
17950;BME280;9100;48.700;9.316;2023-03-26T01:04:53;97266.6;;;9.6;100
17950;BME280;9100;48.700;9.316;2023-03-26T01:05:33;97275.8;;;9.61;100
17950;BME280;9100;48.700;9.316;2023-03-26T01:06:02;97270.7;;;9.61;100
17950;BME280;9100;48.700;9.316;2023-03-26T01:07:02;97265.4;;;9.62;100
17950;BME280;9100;48.700;9.316;2023-03-26T01:08:05;97263.7;;;9.63;100
17950;BME280;9100;48.700;9.316;2023-03-26T01:09:02;97261.1;;;9.63;100
17950;BME280;9100;48.700;9.316;2023-03-26T01:09:54;97266.2;;;9.63;100
17950;BME280;9100;48.700;9.316;2023-03-26T01:10:02;97257.8;;;9.62;100
17950;BME280;9100;48.700;9.316;2023-03-26T01:11:03;97265;;;9.65;100
17950;BME280;9100;48.700;9.316;2023-03-26T01:12:02;97262.5;;;9.65;100
17950;BME280;9100;48.700;9.316;2023-03-26T01:13:01;97262.5;;;9.65;100
17950;BME280;9100;48.700;9.316;2023-03-26T01:14:04;97263.5;;;9.64;100
17950;BME280;9100;48.700;9.316;2023-03-26T01:14:54;97254.8;;;9.65;100
17950;BME280;9100;48.700;9.316;2023-03-26T01:15:02;97254.8;;;9.65;100
17950;BME280;9100;48.700;9.316;2023-03-26T01:16:02;97259.79999999999;;;9.67;100
17950;BME280;9100;48.700;9.316;2023-03-26T01:17:02;97253.9;;;9.66;100
17950;BME280;9100;48.700;9.316;2023-03-26T01:18:02;97251.3;;;9.66;100
17950;BME280;9100;48.700;9.316;2023-03-26T01:19:02;97206;;;9.33;100
17950;BME280;9100;48.700;9.316;2023-03-26T01:19:53;97246.6;;;9.63;100
17950;BME280;9100;48.700;9.316;2023-03-26T01:20:06;97247.2;;;9.65;100
17950;BME280;9100;48.700;9.316;2023-03-26T01:21:02;97249.7;;;9.65;100
17950;BME280;9100;48.700;9.316;2023-03-26T01:22:01;97241.5;;;9.63;100
17950;BME280;9100;48.700;9.316;2023-03-26T01:23:01;97248.5;;;9.61;100
17950;BME280;9100;48.700;9.316;2023-03-26T01:24:01;97245.2;;;9.61;100
17950;BME280;9100;48.700;9.316;2023-03-26T01:24:52;97239.5;;;9.59;100
17950;BME280;9100;48.700;9.316;2023-03-26T01:25:01;97236;;;9.6;100
17950;BME280;9100;48.700;9.316;2023-03-26T01:26:04;97175.7;;;9.23;100
17950;BME280;9100;48.700;9.316;2023-03-26T01:27:10;97235.7;;;9.61;100
17950;BME280;9100;48.700;9.316;2023-03-26T01:28:01;97236;;;9.6;100
17950;BME280;9100;48.700;9.316;2023-03-26T01:29:02;97230;;;9.59;100
17950;BME280;9100;48.700;9.316;2023-03-26T01:29:52;97222.6;;;9.58;100
17950;BME280;9100;48.700;9.316;2023-03-26T01:30:04;97228.5;;;9.58;100
17950;BME280;9100;48.700;9.316;2023-03-26T01:31:03;97221.40000000001;;;9.6;100
17950;BME280;9100;48.700;9.316;2023-03-26T01:32:03;97224.2;;;9.59;100
17950;BME280;9100;48.700;9.316;2023-03-26T01:33:02;97226.70000000001;;;9.59;100
17950;BME280;9100;48.700;9.316;2023-03-26T01:34:02;97221.8;;;9.57;100
17950;BME280;9100;48.700;9.316;2023-03-26T01:34:57;97226.9;;;9.57;100
17950;BME280;9100;48.700;9.316;2023-03-26T01:35:06;97221;;;9.57;100
17950;BME280;9100;48.700;9.316;2023-03-26T01:36:02;97222.6;;;9.58;100
17950;BME280;9100;48.700;9.316;2023-03-26T01:37:03;97220.8;;;9.58;100
17950;BME280;9100;48.700;9.316;2023-03-26T01:38:04;97224.2;;;9.59;100
17950;BME280;9100;48.700;9.316;2023-03-26T01:39:03;97216.7;;;9.57;100
17950;BME280;9100;48.700;9.316;2023-03-26T01:39:54;97212.09999999999;;;9.53;100
17950;BME280;9100;48.700;9.316;2023-03-26T01:40:03;97208.6;;;9.54;100
17950;BME280;9100;48.700;9.316;2023-03-26T01:41:03;97218.6;;;9.55;100
17950;BME280;9100;48.700;9.316;2023-03-26T01:42:01;97207.5;;;9.56;100
17950;BME280;9100;48.700;9.316;2023-03-26T01:43:02;97205.9;;;9.55;100
17950;BME280;9100;48.700;9.316;2023-03-26T01:44:02;96962.40000000001;;;7.95;100
17950;BME280;9100;48.700;9.316;2023-03-26T01:44:54;97209;;;9.57;100
17950;BME280;9100;48.700;9.316;2023-03-26T01:45:02;97202.5;;;9.55;100
17950;BME280;9100;48.700;9.316;2023-03-26T01:46:02;97203.09999999999;;;9.57;100
17950;BME280;9100;48.700;9.316;2023-03-26T01:47:02;97201.3;;;9.57;100
17950;BME280;9100;48.700;9.316;2023-03-26T01:48:02;97188.09999999999;;;9.47;100
17950;BME280;9100;48.700;9.316;2023-03-26T01:49:02;97198.7;;;9.51;100
17950;BME280;9100;48.700;9.316;2023-03-26T01:49:52;97190.3;;;9.5;100
17950;BME280;9100;48.700;9.316;2023-03-26T01:50:01;97201.3;;;9.51;100
17950;BME280;9100;48.700;9.316;2023-03-26T01:51:02;97197.40000000001;;;9.48;100
17950;BME280;9100;48.700;9.316;2023-03-26T01:52:04;97190.7;;;9.47;100
17950;BME280;9100;48.700;9.316;2023-03-26T01:53:05;97187.3;;;9.47;100
17950;BME280;9100;48.700;9.316;2023-03-26T01:54:03;97132.6;;;9.07;100
17950;BME280;9100;48.700;9.316;2023-03-26T01:54:52;97187.7;;;9.44;100
17950;BME280;9100;48.700;9.316;2023-03-26T01:55:02;97180.8;;;9.44;100
17950;BME280;9100;48.700;9.316;2023-03-26T01:56:05;97185.90000000001;;;9.44;100
17950;BME280;9100;48.700;9.316;2023-03-26T01:57:02;97179.9;;;9.45;100
17950;BME280;9100;48.700;9.316;2023-03-26T01:58:03;97180;;;9.44;100
17950;BME280;9100;48.700;9.316;2023-03-26T01:59:05;97180.8;;;9.44;100
17950;BME280;9100;48.700;9.316;2023-03-26T01:59:58;97180;;;9.44;100
17950;BME280;9100;48.700;9.316;2023-03-26T02:00:05;97176.70000000001;;;9.43;100
17950;BME280;9100;48.700;9.316;2023-03-26T02:01:05;97181.8;;;9.43;100
17950;BME280;9100;48.700;9.316;2023-03-26T02:02:03;97177.70000000001;;;9.42;100
17950;BME280;9100;48.700;9.316;2023-03-26T02:03:06;97173.5;;;9.41;100
17950;BME280;9100;48.700;9.316;2023-03-26T02:04:05;97169.4;;;9.4;100
17950;BME280;9100;48.700;9.316;2023-03-26T02:04:56;97169.4;;;9.4;100
17950;BME280;9100;48.700;9.316;2023-03-26T02:05:04;97166.9;;;9.4;100
17950;BME280;9100;48.700;9.316;2023-03-26T02:06:03;97167.8;;;9.39;100
17950;BME280;9100;48.700;9.316;2023-03-26T02:07:02;97172.90000000001;;;9.39;100
17950;BME280;9100;48.700;9.316;2023-03-26T02:08:02;97169.4;;;9.4;100
17950;BME280;9100;48.700;9.316;2023-03-26T02:09:02;97168.2;;;9.36;100
17950;BME280;9100;48.700;9.316;2023-03-26T02:09:52;97164;;;9.35;100
17950;BME280;9100;48.700;9.316;2023-03-26T02:10:03;97161.5;;;9.35;100
17950;BME280;9100;48.700;9.316;2023-03-26T02:11:02;97162.3;;;9.36;100
17950;BME280;9100;48.700;9.316;2023-03-26T02:12:01;97150.7;;;9.33;100
17950;BME280;9100;48.700;9.316;2023-03-26T02:13:02;97151.70000000001;;;9.32;100
17950;BME280;9100;48.700;9.316;2023-03-26T02:14:02;97156.8;;;9.32;100
17950;BME280;9100;48.700;9.316;2023-03-26T02:14:52;97154.4;;;9.31;100
17950;BME280;9100;48.700;9.316;2023-03-26T02:15:02;97154.4;;;9.31;100
17950;BME280;9100;48.700;9.316;2023-03-26T02:16:03;97150.9;;;9.32;100
17950;BME280;9100;48.700;9.316;2023-03-26T02:17:01;97139.9;;;9.31;100
17950;BME280;9100;48.700;9.316;2023-03-26T02:18:02;97148.2;;;9.33;100
17950;BME280;9100;48.700;9.316;2023-03-26T02:19:01;97140.5;;;9.33;100
17950;BME280;9100;48.700;9.316;2023-03-26T02:19:52;97140.5;;;9.33;100
17950;BME280;9100;48.700;9.316;2023-03-26T02:20:01;97145.4;;;9.35;100
17950;BME280;9100;48.700;9.316;2023-03-26T02:21:03;97135.2;;;9.35;100
17950;BME280;9100;48.700;9.316;2023-03-26T02:22:01;97130.9;;;9.35;100
17950;BME280;9100;48.700;9.316;2023-03-26T02:23:02;97133.3;;;9.37;100
17950;BME280;9100;48.700;9.316;2023-03-26T02:24:01;97139.3;;;9.36;100
17950;BME280;9100;48.700;9.316;2023-03-26T02:24:52;97129.3;;;9.34;100
17950;BME280;9100;48.700;9.316;2023-03-26T02:25:01;97135.2;;;9.35;100
17950;BME280;9100;48.700;9.316;2023-03-26T02:26:02;97129.1;;;9.36;100
17950;BME280;9100;48.700;9.316;2023-03-26T02:27:02;97130.7;;;9.37;100
17950;BME280;9100;48.700;9.316;2023-03-26T02:28:01;97124;;;9.36;100
17950;BME280;9100;48.700;9.316;2023-03-26T02:29:02;97115.59999999999;;;9.35;100
17950;BME280;9100;48.700;9.316;2023-03-26T02:29:53;97119.1;;;9.34;100
17950;BME280;9100;48.700;9.316;2023-03-26T02:30:02;97120.7;;;9.35;100
17950;BME280;9100;48.700;9.316;2023-03-26T02:31:02;97113.8;;;9.36;100
17950;BME280;9100;48.700;9.316;2023-03-26T02:32:02;97114;;;9.34;100
17950;BME280;9100;48.700;9.316;2023-03-26T02:33:01;97118.1;;;9.35;100
17950;BME280;9100;48.700;9.316;2023-03-26T02:34:01;97119.1;;;9.34;100
17950;BME280;9100;48.700;9.316;2023-03-26T02:34:52;97114;;;9.34;100
17950;BME280;9100;48.700;9.316;2023-03-26T02:35:02;97115.8;;;9.34;100
17950;BME280;9100;48.700;9.316;2023-03-26T02:36:02;97114;;;9.34;100
17950;BME280;9100;48.700;9.316;2023-03-26T02:37:01;97118.5;;;9.32;100
17950;BME280;9100;48.700;9.316;2023-03-26T02:38:02;97120.3;;;9.32;100
17950;BME280;9100;48.700;9.316;2023-03-26T02:39:01;97123;;;9.3;100
17950;BME280;9100;48.700;9.316;2023-03-26T02:39:53;97114.70000000001;;;9.28;100
17950;BME280;9100;48.700;9.316;2023-03-26T02:40:02;96890;;;7.83;100
17950;BME280;9100;48.700;9.316;2023-03-26T02:41:01;97119.7;;;9.3;100
17950;BME280;9100;48.700;9.316;2023-03-26T02:42:03;97123.2;;;9.29;100
17950;BME280;9100;48.700;9.316;2023-03-26T02:43:02;97118.2;;;9.27;100
17950;BME280;9100;48.700;9.316;2023-03-26T02:44:02;97117.7;;;9.25;100
17950;BME280;9100;48.700;9.316;2023-03-26T02:44:53;97117.8;;;9.23;100
17950;BME280;9100;48.700;9.316;2023-03-26T02:45:02;97118.6;;;9.24;100
17950;BME280;9100;48.700;9.316;2023-03-26T02:46:21;97118.6;;;9.24;100
17950;BME280;9100;48.700;9.316;2023-03-26T02:47:02;97109.2;;;9.24;100
17950;BME280;9100;48.700;9.316;2023-03-26T02:48:02;97104.1;;;9.24;100
17950;BME280;9100;48.700;9.316;2023-03-26T02:49:01;97108.4;;;9.24;100
17950;BME280;9100;48.700;9.316;2023-03-26T02:49:52;97106.8;;;9.23;100
17950;BME280;9100;48.700;9.316;2023-03-26T02:50:01;97111.3;;;9.21;100
17950;BME280;9100;48.700;9.316;2023-03-26T02:51:01;97098.6;;;9.21;100
17950;BME280;9100;48.700;9.316;2023-03-26T02:52:02;97106.4;;;9.19;100
17950;BME280;9100;48.700;9.316;2023-03-26T02:53:01;97101.5;;;9.18;100
17950;BME280;9100;48.700;9.316;2023-03-26T02:54:02;97104.1;;;9.18;100
17950;BME280;9100;48.700;9.316;2023-03-26T02:54:52;97106.6;;;9.18;100
17950;BME280;9100;48.700;9.316;2023-03-26T02:55:02;97096.6;;;9.16;100
17950;BME280;9100;48.700;9.316;2023-03-26T02:56:02;97104.9;;;9.18;100
17950;BME280;9100;48.700;9.316;2023-03-26T02:57:02;97101.70000000001;;;9.16;100
17950;BME280;9100;48.700;9.316;2023-03-26T02:58:02;97099.3;;;9.15;100
17950;BME280;9100;48.700;9.316;2023-03-26T02:59:01;97099.5;;;9.13;100
17950;BME280;9100;48.700;9.316;2023-03-26T02:59:52;97084.3;;;9.05;100
17950;BME280;9100;48.700;9.316;2023-03-26T03:00:02;97094.4;;;9.13;100
17950;BME280;9100;48.700;9.316;2023-03-26T03:01:02;97092.6;;;9.14;100
17950;BME280;9100;48.700;9.316;2023-03-26T03:02:01;97097.7;;;9.14;100
17950;BME280;9100;48.700;9.316;2023-03-26T03:03:02;97094.2;;;9.15;100
17950;BME280;9100;48.700;9.316;2023-03-26T03:04:02;97087.40000000001;;;9.15;100
17950;BME280;9100;48.700;9.316;2023-03-26T03:04:54;97084;;;9.15;100
17950;BME280;9100;48.700;9.316;2023-03-26T03:05:02;97089.09999999999;;;9.15;100
17950;BME280;9100;48.700;9.316;2023-03-26T03:06:02;97088.8;;;9.18;100
17950;BME280;9100;48.700;9.316;2023-03-26T03:07:01;97081.9;;;9.18;100
17950;BME280;9100;48.700;9.316;2023-03-26T03:08:02;97077;;;9.17;100
17950;BME280;9100;48.700;9.316;2023-03-26T03:09:02;97081.7;;;9.2;100
17950;BME280;9100;48.700;9.316;2023-03-26T03:09:52;97080.1;;;9.19;100
17950;BME280;9100;48.700;9.316;2023-03-26T03:10:02;97076.59999999999;;;9.2;100
17950;BME280;9100;48.700;9.316;2023-03-26T03:11:03;97069.6;;;9.22;100
17950;BME280;9100;48.700;9.316;2023-03-26T03:12:01;97072.7;;;9.24;100
17950;BME280;9100;48.700;9.316;2023-03-26T03:13:02;97070;;;9.25;100
17950;BME280;9100;48.700;9.316;2023-03-26T03:14:12;97059.6;;;9.27;100
17950;BME280;9100;48.700;9.316;2023-03-26T03:14:52;97058.6;;;9.28;100
17950;BME280;9100;48.700;9.316;2023-03-26T03:15:02;97062.90000000001;;;9.28;100
17950;BME280;9100;48.700;9.316;2023-03-26T03:16:02;97057.6;;;9.29;100
17950;BME280;9100;48.700;9.316;2023-03-26T03:17:02;97056.7;;;9.3;100
17950;BME280;9100;48.700;9.316;2023-03-26T03:18:02;97046.5;;;9.3;100
17950;BME280;9100;48.700;9.316;2023-03-26T03:19:02;97055.7;;;9.31;100
17950;BME280;9100;48.700;9.316;2023-03-26T03:19:53;97053.9;;;9.32;100
17950;BME280;9100;48.700;9.316;2023-03-26T03:20:02;97048;;;9.31;100
17950;BME280;9100;48.700;9.316;2023-03-26T03:21:05;97050.2;;;9.34;100
17950;BME280;9100;48.700;9.316;2023-03-26T03:22:02;97054.3;;;9.35;100
17950;BME280;9100;48.700;9.316;2023-03-26T03:23:01;97049.2;;;9.35;100
17950;BME280;9100;48.700;9.316;2023-03-26T03:24:01;97048.29999999999;;;9.36;100
17950;BME280;9100;48.700;9.316;2023-03-26T03:24:52;97043.3;;;9.35;100
17950;BME280;9100;48.700;9.316;2023-03-26T03:25:03;97043.3;;;9.35;100
17950;BME280;9100;48.700;9.316;2023-03-26T03:26:03;97044;;;9.37;100
17950;BME280;9100;48.700;9.316;2023-03-26T03:27:02;97047.29999999999;;;9.37;100
17950;BME280;9100;48.700;9.316;2023-03-26T03:28:03;97032;;;9.37;100
17950;BME280;9100;48.700;9.316;2023-03-26T03:29:02;97039.70000000001;;;9.37;100
17950;BME280;9100;48.700;9.316;2023-03-26T03:29:52;97035.5;;;9.36;100
17950;BME280;9100;48.700;9.316;2023-03-26T03:30:04;97033.1;;;9.35;100
17950;BME280;9100;48.700;9.316;2023-03-26T03:31:03;97027.09999999999;;;9.36;100
17950;BME280;9100;48.700;9.316;2023-03-26T03:32:02;97032;;;9.37;100
17950;BME280;9100;48.700;9.316;2023-03-26T03:33:04;97026.9;;;9.37;100
17950;BME280;9100;48.700;9.316;2023-03-26T03:34:02;97023.40000000001;;;9.38;100
17950;BME280;9100;48.700;9.316;2023-03-26T03:34:52;97026.70000000001;;;9.39;100
17950;BME280;9100;48.700;9.316;2023-03-26T03:35:02;97024.90000000001;;;9.39;100
17950;BME280;9100;48.700;9.316;2023-03-26T03:36:02;97026.5;;;9.4;100
17950;BME280;9100;48.700;9.316;2023-03-26T03:37:01;97020.6;;;9.4;100
17950;BME280;9100;48.700;9.316;2023-03-26T03:38:02;97021.40000000001;;;9.4;100
17950;BME280;9100;48.700;9.316;2023-03-26T03:39:02;97021.8;;;9.37;100
17950;BME280;9100;48.700;9.316;2023-03-26T03:39:52;97018.5;;;9.37;100
17950;BME280;9100;48.700;9.316;2023-03-26T03:40:02;97016.09999999999;;;9.35;100
17950;BME280;9100;48.700;9.316;2023-03-26T03:41:02;97019.4;;;9.36;100
17950;BME280;9100;48.700;9.316;2023-03-26T03:42:02;97015.9;;;9.37;100
17950;BME280;9100;48.700;9.316;2023-03-26T03:43:02;97010;;;9.36;100
17950;BME280;9100;48.700;9.316;2023-03-26T03:44:02;97013.5;;;9.35;100
17950;BME280;9100;48.700;9.316;2023-03-26T03:44:52;97003.3;;;9.35;100
17950;BME280;9100;48.700;9.316;2023-03-26T03:45:02;97009.2;;;9.36;100
17950;BME280;9100;48.700;9.316;2023-03-26T03:46:02;97009;;;9.37;100
17950;BME280;9100;48.700;9.316;2023-03-26T03:47:02;97007.3;;;9.38;100
17950;BME280;9100;48.700;9.316;2023-03-26T03:48:02;97008.8;;;9.39;100
17950;BME280;9100;48.700;9.316;2023-03-26T03:49:02;97008;;;9.38;100
17950;BME280;9100;48.700;9.316;2023-03-26T03:49:55;97004.9;;;9.36;100
17950;BME280;9100;48.700;9.316;2023-03-26T03:50:03;96999.8;;;9.36;100
17950;BME280;9100;48.700;9.316;2023-03-26T03:51:02;97000.8;;;9.35;100
17950;BME280;9100;48.700;9.316;2023-03-26T03:52:02;96996.1;;;9.39;100
17950;BME280;9100;48.700;9.316;2023-03-26T03:53:02;96996.90000000001;;;9.39;100
17950;BME280;9100;48.700;9.316;2023-03-26T03:54:02;97008;;;9.38;100
17950;BME280;9100;48.700;9.316;2023-03-26T03:54:52;97008;;;9.38;100
17950;BME280;9100;48.700;9.316;2023-03-26T03:55:02;97008.8;;;9.39;100
17950;BME280;9100;48.700;9.316;2023-03-26T03:56:02;97003.7;;;9.39;100
17950;BME280;9100;48.700;9.316;2023-03-26T03:57:02;97007.9;;;9.4;100
17950;BME280;9100;48.700;9.316;2023-03-26T03:58:02;97007.9;;;9.4;100
17950;BME280;9100;48.700;9.316;2023-03-26T03:59:02;97006.3;;;9.39;100
17950;BME280;9100;48.700;9.316;2023-03-26T03:59:52;97002.9;;;9.38;100
17950;BME280;9100;48.700;9.316;2023-03-26T04:00:02;97002.9;;;9.38;100
17950;BME280;9100;48.700;9.316;2023-03-26T04:01:02;96998.5;;;9.4;100
17950;BME280;9100;48.700;9.316;2023-03-26T04:02:02;97000;;;9.41;100
17950;BME280;9100;48.700;9.316;2023-03-26T04:03:02;96993.9;;;9.42;100
17950;BME280;9100;48.700;9.316;2023-03-26T04:04:02;96999;;;9.42;100
17950;BME280;9100;48.700;9.316;2023-03-26T04:04:52;96993.9;;;9.42;100
17950;BME280;9100;48.700;9.316;2023-03-26T04:05:02;96993.2;;;9.42;100
17950;BME280;9100;48.700;9.316;2023-03-26T04:06:02;96993.9;;;9.42;100
17950;BME280;9100;48.700;9.316;2023-03-26T04:07:05;96985.29999999999;;;9.43;100
17950;BME280;9100;48.700;9.316;2023-03-26T04:08:02;96986.90000000001;;;9.44;100
17950;BME280;9100;48.700;9.316;2023-03-26T04:09:02;96986.1;;;9.44;100
17950;BME280;9100;48.700;9.316;2023-03-26T04:09:52;96983.7;;;9.42;100
17950;BME280;9100;48.700;9.316;2023-03-26T04:10:02;96987.09999999999;;;9.43;100
17950;BME280;9100;48.700;9.316;2023-03-26T04:11:02;96983.7;;;9.42;100
17950;BME280;9100;48.700;9.316;2023-03-26T04:12:02;96988.8;;;9.42;100
17950;BME280;9100;48.700;9.316;2023-03-26T04:13:01;96979.4;;;9.43;100
17950;BME280;9100;48.700;9.316;2023-03-26T04:14:02;96972.6;;;9.43;100
17950;BME280;9100;48.700;9.316;2023-03-26T04:14:52;96975.09999999999;;;9.43;100
17950;BME280;9100;48.700;9.316;2023-03-26T04:15:02;96971.6;;;9.44;100
17950;BME280;9100;48.700;9.316;2023-03-26T04:16:02;96974.1;;;9.44;100
17950;BME280;9100;48.700;9.316;2023-03-26T04:17:02;96972.40000000001;;;9.45;100
17950;BME280;9100;48.700;9.316;2023-03-26T04:18:02;96967.5;;;9.43;100
17950;BME280;9100;48.700;9.316;2023-03-26T04:19:02;96966.7;;;9.43;100
17950;BME280;9100;48.700;9.316;2023-03-26T04:19:52;96962;;;9.4;100
17950;BME280;9100;48.700;9.316;2023-03-26T04:20:02;96964.5;;;9.4;100
17950;BME280;9100;48.700;9.316;2023-03-26T04:21:02;96948.40000000001;;;9.33;100
17950;BME280;9100;48.700;9.316;2023-03-26T04:22:01;96967.2;;;9.38;100
17950;BME280;9100;48.700;9.316;2023-03-26T04:23:02;96957.8;;;9.39;100
17950;BME280;9100;48.700;9.316;2023-03-26T04:24:02;96961.40000000001;;;9.38;100
17950;BME280;9100;48.700;9.316;2023-03-26T04:24:52;96961.40000000001;;;9.38;100
17950;BME280;9100;48.700;9.316;2023-03-26T04:25:02;96952.9;;;9.37;100
17950;BME280;9100;48.700;9.316;2023-03-26T04:26:02;96958;;;9.37;100
17950;BME280;9100;48.700;9.316;2023-03-26T04:27:02;96958;;;9.37;100
17950;BME280;9100;48.700;9.316;2023-03-26T04:28:02;96955.5;;;9.37;100
17950;BME280;9100;48.700;9.316;2023-03-26T04:29:02;96958;;;9.37;100
17950;BME280;9100;48.700;9.316;2023-03-26T04:29:52;96956.4;;;9.36;100
17950;BME280;9100;48.700;9.316;2023-03-26T04:30:02;96950.40000000001;;;9.37;100
17950;BME280;9100;48.700;9.316;2023-03-26T04:31:02;96952.9;;;9.37;100
17950;BME280;9100;48.700;9.316;2023-03-26T04:32:02;96944.5;;;9.37;100
17950;BME280;9100;48.700;9.316;2023-03-26T04:33:02;96942.5;;;9.39;100
17950;BME280;9100;48.700;9.316;2023-03-26T04:34:03;96940.7;;;9.39;100
17950;BME280;9100;48.700;9.316;2023-03-26T04:34:57;96940;;;9.39;100
17950;BME280;9100;48.700;9.316;2023-03-26T04:35:02;96940;;;9.39;100
17950;BME280;9100;48.700;9.316;2023-03-26T04:36:02;96934.79999999999;;;9.39;100
17950;BME280;9100;48.700;9.316;2023-03-26T04:37:02;96935.6;;;9.39;100
17950;BME280;9100;48.700;9.316;2023-03-26T04:38:02;96928;;;9.39;100
17950;BME280;9100;48.700;9.316;2023-03-26T04:39:23;96930;;;9.37;100